Time;durP1;ratioP1;P1;durP2;ratioP2;P2;SDS_P1;SDS_P2;PMS_P1;PMS_P2;Temp;Humidity;BMP_temperature;BMP_pressure;BME280_temperature;BME280_humidity;BME280_pressure;Samples;Min_cycle;Max_cycle;Signal;HPM_P1;HPM_P2
2022/03/21 00:01:52;;;;;;;38.53;20.00;;;6.90;99.90;;;;;;5059167;28;20176;-58
2022/03/21 00:04:18;;;;;;;43.53;21.40;;;6.90;99.90;;;;;;5070014;28;20277;-57
2022/03/21 00:06:44;;;;;;;32.10;18.97;;;6.80;99.90;;;;;;5068998;28;20222;-58
2022/03/21 00:09:10;;;;;;;30.67;17.47;;;6.80;99.90;;;;;;5054738;28;20564;-58
2022/03/21 00:11:35;;;;;;;32.87;18.27;;;6.80;99.90;;;;;;5069711;28;20629;-58
2022/03/21 00:14:01;;;;;;;34.33;17.47;;;6.80;99.90;;;;;;5070075;28;20193;-58
2022/03/21 00:16:27;;;;;;;28.83;16.73;;;6.80;99.90;;;;;;5069994;28;20194;-59
2022/03/21 00:18:53;;;;;;;35.40;17.37;;;6.80;99.90;;;;;;5068730;28;20191;-59
2022/03/21 00:21:20;;;;;;;33.43;17.93;;;6.80;99.90;;;;;;5069877;28;20212;-59
2022/03/21 00:23:47;;;;;;;32.73;17.63;;;6.90;99.90;;;;;;5067363;28;20264;-58
2022/03/21 00:26:15;;;;;;;38.97;18.83;;;6.70;99.90;;;;;;5069654;28;20200;-58
2022/03/21 00:28:41;;;;;;;30.07;17.13;;;6.70;99.90;;;;;;5073632;28;20234;-58
2022/03/21 00:31:07;;;;;;;34.83;18.63;;;6.70;99.90;;;;;;5073407;28;20200;-58
2022/03/21 00:33:33;;;;;;;35.23;18.50;;;6.70;99.90;;;;;;5074318;28;20202;-58
2022/03/21 00:35:59;;;;;;;35.90;18.50;;;6.60;99.90;;;;;;5073259;28;20187;-59
2022/03/21 00:38:26;;;;;;;34.53;18.73;;;6.60;99.90;;;;;;5073400;28;20179;-59
2022/03/21 00:40:52;;;;;;;34.47;18.70;;;6.50;99.90;;;;;;5063553;28;20243;-59
2022/03/21 00:43:24;;;;;;;36.07;17.93;;;6.60;99.90;;;;;;5045599;28;20690;-59
2022/03/21 00:45:52;;;;;;;33.50;17.77;;;6.70;99.90;;;;;;5071236;28;20191;-58
2022/03/21 00:48:18;;;;;;;35.07;17.27;;;6.60;99.90;;;;;;5055570;28;20180;-59
2022/03/21 00:50:44;;;;;;;33.93;18.10;;;6.60;99.90;;;;;;5073538;28;20183;-58
2022/03/21 00:53:10;;;;;;;32.13;17.43;;;6.60;99.90;;;;;;5073566;28;20184;-58
2022/03/21 00:55:36;;;;;;;31.53;17.10;;;6.70;99.90;;;;;;5056369;28;20165;-59
2022/03/21 00:58:02;;;;;;;34.17;16.93;;;6.70;99.90;;;;;;5073812;28;20183;-58
2022/03/21 01:00:30;;;;;;;30.73;17.90;;;6.60;99.90;;;;;;5072769;28;20617;-58
2022/03/21 01:02:58;;;;;;;32.00;18.07;;;6.60;99.90;;;;;;5072798;28;20176;-59
2022/03/21 01:05:24;;;;;;;31.20;16.60;;;6.50;99.90;;;;;;5073152;28;20206;-59
2022/03/21 01:07:51;;;;;;;31.23;16.77;;;6.50;99.90;;;;;;5055789;28;20175;-59
2022/03/21 01:10:18;;;;;;;32.43;17.03;;;6.50;99.90;;;;;;5067831;28;20181;-59
2022/03/21 01:12:45;;;;;;;33.33;16.83;;;6.50;99.90;;;;;;5053728;28;20172;-58
2022/03/21 01:15:16;;;;;;;34.40;17.70;;;6.50;99.90;;;;;;5057958;28;20192;-59
2022/03/21 01:17:42;;;;;;;33.57;17.60;;;6.50;99.90;;;;;;5073685;28;20172;-58
2022/03/21 01:20:09;;;;;;;30.70;17.87;;;6.50;99.90;;;;;;5072774;28;20204;-58
2022/03/21 01:22:35;;;;;;;36.43;17.83;;;6.50;99.90;;;;;;5072777;28;20700;-58
2022/03/21 01:25:01;;;;;;;34.27;16.67;;;6.40;99.90;;;;;;5071401;28;20172;-58
2022/03/21 01:27:27;;;;;;;31.33;16.40;;;6.40;99.90;;;;;;5057703;28;20208;-59
2022/03/21 01:29:53;;;;;;;33.67;16.47;;;6.30;99.90;;;;;;5054096;28;20632;-59
2022/03/21 01:32:19;;;;;;;29.07;16.20;;;6.30;99.90;;;;;;5072401;28;20181;-59
2022/03/21 01:34:44;;;;;;;29.80;16.07;;;6.30;99.90;;;;;;5054786;28;20268;-59
2022/03/21 01:37:10;;;;;;;32.93;17.30;;;6.20;99.90;;;;;;5073152;28;20672;-59
2022/03/21 01:39:36;;;;;;;31.50;17.13;;;6.20;99.90;;;;;;5071970;28;20247;-58
2022/03/21 01:42:02;;;;;;;28.47;16.17;;;6.20;99.90;;;;;;5068340;28;20188;-59
2022/03/21 01:44:28;;;;;;;29.67;15.93;;;6.20;99.90;;;;;;5079604;28;20666;-60
2022/03/21 01:46:54;;;;;;;28.27;15.67;;;6.20;99.90;;;;;;5072304;28;20208;-58
2022/03/21 01:49:20;;;;;;;34.73;17.67;;;6.20;99.90;;;;;;5071526;28;20177;-58
2022/03/21 01:51:46;;;;;;;32.47;16.03;;;6.20;99.90;;;;;;5071112;28;20684;-59
2022/03/21 01:56:57;;;;;;;33.00;16.57;;;6.20;99.90;;;;;;5058163;28;20226;-59
2022/03/21 01:59:24;;;;;;;32.13;16.93;;;6.10;99.90;;;;;;5062417;28;20223;-59
2022/03/21 02:01:50;;;;;;;29.77;16.60;;;6.10;99.90;;;;;;5072060;28;20630;-60
2022/03/21 02:04:16;;;;;;;33.27;17.40;;;6.10;99.90;;;;;;5071852;28;20213;-59
2022/03/21 02:06:43;;;;;;;32.00;16.93;;;6.00;99.90;;;;;;5072105;28;20191;-60
2022/03/21 02:09:09;;;;;;;36.90;17.77;;;6.00;99.90;;;;;;5072654;28;20214;-59
2022/03/21 02:11:36;;;;;;;30.87;16.67;;;5.90;99.90;;;;;;5071419;28;20631;-58
2022/03/21 02:14:04;;;;;;;28.27;16.13;;;5.80;99.90;;;;;;5072105;28;20534;-59
2022/03/21 02:16:31;;;;;;;30.20;16.77;;;5.80;99.90;;;;;;5055139;28;20220;-59
2022/03/21 02:19:06;;;;;;;28.17;17.07;;;5.90;99.90;;;;;;5069523;28;20183;-60
2022/03/21 02:21:43;;;;;;;31.13;16.53;;;5.80;99.90;;;;;;5071582;28;20266;-59
2022/03/21 02:24:20;;;;;;;35.07;17.20;;;5.70;99.90;;;;;;5072259;28;20842;-59
2022/03/21 02:26:46;;;;;;;31.07;17.33;;;5.70;99.90;;;;;;5059133;28;20203;-59
2022/03/21 02:29:13;;;;;;;33.07;17.57;;;5.70;99.90;;;;;;5063931;28;20169;-59
2022/03/21 02:31:39;;;;;;;30.03;16.60;;;5.70;99.90;;;;;;5070906;28;20673;-59
2022/03/21 02:34:06;;;;;;;31.43;17.17;;;5.60;99.90;;;;;;5071990;28;20645;-60
2022/03/21 02:36:32;;;;;;;29.93;16.70;;;5.60;99.90;;;;;;5071436;28;20184;-59
2022/03/21 02:38:59;;;;;;;30.97;17.10;;;5.60;99.90;;;;;;5070331;28;20673;-59
2022/03/21 02:41:24;;;;;;;29.13;16.83;;;5.60;99.90;;;;;;5070649;28;20219;-59
2022/03/21 02:43:55;;;;;;;30.13;17.07;;;5.60;99.90;;;;;;5071177;28;20177;-59
2022/03/21 02:46:21;;;;;;;32.73;17.27;;;5.60;99.90;;;;;;5071254;28;20185;-59
2022/03/21 02:48:49;;;;;;;32.30;17.57;;;5.60;99.90;;;;;;5070686;28;20315;-60
2022/03/21 02:51:16;;;;;;;34.80;17.47;;;5.60;99.90;;;;;;5067683;28;20168;-59
2022/03/21 02:53:43;;;;;;;32.10;17.03;;;5.70;99.90;;;;;;5052138;28;20224;-59
2022/03/21 02:56:09;;;;;;;33.40;16.83;;;5.80;99.90;;;;;;5063923;28;20520;-59
2022/03/21 02:58:35;;;;;;;31.07;16.63;;;5.90;99.90;;;;;;5070384;28;20206;-59
2022/03/21 03:01:09;;;;;;;31.37;19.17;;;5.90;99.90;;;;;;5059563;28;20244;-59
2022/03/21 03:03:35;;;;;;;29.73;17.00;;;6.00;99.90;;;;;;5061406;28;20217;-59
2022/03/21 03:06:02;;;;;;;35.00;18.00;;;6.00;99.90;;;;;;5071116;28;20398;-59
2022/03/21 03:08:28;;;;;;;35.77;17.83;;;6.00;99.90;;;;;;5071503;28;20157;-59
2022/03/21 03:10:53;;;;;;;32.93;18.37;;;6.10;99.90;;;;;;5063583;28;20188;-59
2022/03/21 03:13:19;;;;;;;35.50;19.07;;;6.00;99.90;;;;;;5071118;28;20229;-59
2022/03/21 03:15:45;;;;;;;32.83;18.73;;;6.00;99.90;;;;;;5070250;28;20557;-60
2022/03/21 03:18:10;;;;;;;37.70;19.90;;;6.10;99.90;;;;;;5070630;28;20173;-60
2022/03/21 03:20:37;;;;;;;37.10;19.93;;;6.00;99.90;;;;;;5069876;28;20212;-61
2022/03/21 03:23:05;;;;;;;38.30;20.17;;;6.00;99.90;;;;;;5069701;28;20200;-60
2022/03/21 03:25:31;;;;;;;40.60;20.00;;;6.00;99.90;;;;;;5059290;28;20183;-60
2022/03/21 03:27:57;;;;;;;40.70;20.77;;;6.00;99.90;;;;;;5070632;28;20180;-60
2022/03/21 03:30:23;;;;;;;42.13;21.30;;;6.00;99.90;;;;;;5070158;28;20188;-60
2022/03/21 03:32:50;;;;;;;43.40;21.17;;;6.00;99.90;;;;;;5066319;28;20173;-60
2022/03/21 03:35:17;;;;;;;40.07;22.27;;;6.00;99.90;;;;;;5056793;28;20173;-60
2022/03/21 03:37:42;;;;;;;45.37;23.50;;;6.00;99.90;;;;;;5070988;28;20173;-60
2022/03/21 03:40:09;;;;;;;50.37;25.07;;;6.00;99.90;;;;;;5069874;28;20215;-60
2022/03/21 03:42:35;;;;;;;47.03;23.53;;;6.00;99.90;;;;;;5069990;28;20267;-60
2022/03/21 03:45:00;;;;;;;47.90;24.77;;;6.00;99.90;;;;;;5070042;28;20263;-60
2022/03/21 03:47:26;;;;;;;50.27;26.40;;;6.00;99.90;;;;;;5070807;28;20271;-60
2022/03/21 03:49:52;;;;;;;45.97;24.93;;;5.90;99.90;;;;;;5059953;28;20570;-60
2022/03/21 03:52:17;;;;;;;45.70;25.30;;;5.90;99.90;;;;;;5068679;28;20674;-60
2022/03/21 03:54:43;;;;;;;47.13;24.57;;;6.00;99.90;;;;;;5068414;28;20255;-60
2022/03/21 03:57:11;;;;;;;46.03;24.73;;;6.00;99.90;;;;;;5069987;28;20283;-60
2022/03/21 03:59:37;;;;;;;46.17;26.13;;;6.00;99.90;;;;;;5070235;28;20201;-60
2022/03/21 04:02:03;;;;;;;46.03;25.17;;;6.10;99.90;;;;;;5069381;28;20203;-61
2022/03/21 04:04:29;;;;;;;46.57;25.30;;;6.10;99.90;;;;;;5065595;28;20224;-60
2022/03/21 04:06:55;;;;;;;52.10;27.03;;;6.10;99.90;;;;;;5063662;28;20180;-60
2022/03/21 04:09:20;;;;;;;50.17;25.87;;;6.20;99.90;;;;;;5070076;28;20718;-60
2022/03/21 04:11:46;;;;;;;47.20;25.67;;;6.70;99.90;;;;;;5065796;28;20181;-60
2022/03/21 04:14:12;;;;;;;53.27;26.07;;;6.10;99.90;;;;;;5050412;28;20654;-61
2022/03/21 04:16:44;;;;;;;50.37;25.83;;;6.20;99.90;;;;;;5067832;28;20192;-60
2022/03/21 04:19:11;;;;;;;53.73;27.90;;;6.20;99.90;;;;;;5070294;28;20175;-60
2022/03/21 04:21:37;;;;;;;49.87;27.00;;;6.20;99.90;;;;;;5069279;28;20189;-60
2022/03/21 04:24:03;;;;;;;53.93;27.97;;;6.10;99.90;;;;;;5052707;28;20205;-59
2022/03/21 04:26:29;;;;;;;48.60;26.87;;;6.20;99.90;;;;;;5064024;28;20208;-59
2022/03/21 04:28:55;;;;;;;53.57;27.97;;;6.20;99.90;;;;;;5069629;28;20231;-60
2022/03/21 04:31:21;;;;;;;50.23;26.77;;;6.30;99.90;;;;;;5069279;28;20238;-60
2022/03/21 04:33:47;;;;;;;48.43;27.30;;;6.30;99.90;;;;;;5070232;28;20192;-60
2022/03/21 04:36:14;;;;;;;54.47;28.67;;;6.30;99.90;;;;;;5069924;28;20268;-58
2022/03/21 04:38:40;;;;;;;54.70;27.40;;;6.30;99.90;;;;;;5069131;28;20185;-58
2022/03/21 04:41:09;;;;;;;56.83;28.07;;;6.30;99.90;;;;;;5069556;28;20246;-58
2022/03/21 04:43:35;;;;;;;55.13;29.33;;;6.30;99.90;;;;;;5069497;28;20177;-58
2022/03/21 04:46:01;;;;;;;52.67;27.77;;;6.30;99.90;;;;;;5068646;28;20604;-59
2022/03/21 04:48:26;;;;;;;53.93;27.43;;;6.20;99.90;;;;;;5052731;28;20199;-58
2022/03/21 04:50:52;;;;;;;50.17;27.73;;;6.30;99.90;;;;;;5069141;28;20671;-59
2022/03/21 04:53:18;;;;;;;53.50;29.37;;;6.30;99.90;;;;;;5068853;28;20181;-59
2022/03/21 04:55:44;;;;;;;51.83;28.83;;;6.30;99.90;;;;;;5068765;28;20555;-59
2022/03/21 04:58:11;;;;;;;56.20;27.87;;;6.30;99.90;;;;;;5051669;28;20754;-60
2022/03/21 05:00:38;;;;;;;49.63;27.50;;;6.40;99.90;;;;;;5069340;28;20235;-59
2022/03/21 05:03:07;;;;;;;53.13;28.20;;;6.40;99.90;;;;;;5069303;28;20695;-59
2022/03/21 05:05:36;;;;;;;51.73;27.87;;;6.40;99.90;;;;;;5069335;28;20177;-61
2022/03/21 05:08:03;;;;;;;53.43;28.83;;;6.40;99.90;;;;;;5069249;28;20181;-58
2022/03/21 05:10:30;;;;;;;54.87;29.37;;;6.50;99.90;;;;;;5058005;28;20211;-59
2022/03/21 05:12:57;;;;;;;60.17;29.60;;;6.50;99.90;;;;;;5071500;28;20322;-59
2022/03/21 05:15:23;;;;;;;55.30;29.40;;;6.50;99.90;;;;;;5072680;28;20191;-59
2022/03/21 05:17:51;;;;;;;56.17;30.17;;;6.60;99.90;;;;;;5058696;28;20172;-59
2022/03/21 05:20:17;;;;;;;56.67;30.10;;;6.60;99.90;;;;;;5070685;28;20252;-60
2022/03/21 05:22:44;;;;;;;50.40;27.70;;;6.60;99.90;;;;;;5072993;28;20215;-59
2022/03/21 05:30:57;;;;;;;56.37;29.00;;;6.50;99.90;;;;;;5072864;28;20253;-59
2022/03/21 05:36:08;;;;;;;54.27;29.00;;;6.40;99.90;;;;;;5072597;28;20258;-58
2022/03/21 05:38:34;;;;;;;56.17;29.63;;;5.60;99.90;;;;;;5072501;28;20184;-58
2022/03/21 05:41:01;;;;;;;57.43;30.20;;;6.50;99.90;;;;;;5056528;28;20239;-58
2022/03/21 05:43:28;;;;;;;50.97;28.93;;;6.50;99.90;;;;;;5057925;28;20174;-58
2022/03/21 05:45:55;;;;;;;50.23;28.97;;;6.50;99.90;;;;;;5069723;28;20295;-59
2022/03/21 05:51:07;;;;;;;53.87;30.63;;;6.40;99.90;;;;;;5071275;28;20222;-59
2022/03/21 05:53:33;;;;;;;51.10;28.57;;;6.50;99.90;;;;;;5053131;28;20184;-59
2022/03/21 05:56:03;;;;;;;55.93;29.30;;;6.50;99.90;;;;;;5057354;28;20185;-58
2022/03/21 05:58:29;;;;;;;54.87;29.10;;;6.60;99.90;;;;;;5067517;28;20223;-59
2022/03/21 06:00:55;;;;;;;63.67;30.23;;;6.50;99.90;;;;;;5060321;28;20209;-58
2022/03/21 06:03:21;;;;;;;55.63;29.70;;;6.50;99.90;;;;;;5045246;28;20213;-58
2022/03/21 06:05:49;;;;;;;56.57;30.53;;;6.50;99.90;;;;;;5058795;28;20211;-59
2022/03/21 06:08:14;;;;;;;54.50;29.10;;;6.60;99.90;;;;;;5072389;28;20203;-58
2022/03/21 06:10:40;;;;;;;57.43;28.60;;;6.60;99.90;;;;;;5071660;28;20286;-58
2022/03/21 06:13:07;;;;;;;55.33;29.77;;;6.60;99.90;;;;;;5061959;28;20209;-59
2022/03/21 06:15:36;;;;;;;53.70;29.90;;;6.60;99.90;;;;;;5052338;28;20180;-59
2022/03/21 06:18:08;;;;;;;56.87;30.00;;;6.70;99.90;;;;;;5071724;28;20858;-59
2022/03/21 06:20:34;;;;;;;57.63;29.80;;;6.70;99.90;;;;;;5071248;28;20244;-58
2022/03/21 06:22:59;;;;;;;58.63;30.03;;;6.70;99.90;;;;;;5070874;28;20201;-59
2022/03/21 06:25:25;;;;;;;57.63;29.33;;;6.70;99.90;;;;;;5062917;28;20187;-59
2022/03/21 06:27:51;;;;;;;58.40;30.93;;;6.70;99.90;;;;;;5071382;28;20172;-59
2022/03/21 06:30:17;;;;;;;55.23;29.73;;;6.80;99.90;;;;;;5070881;28;20201;-59
2022/03/21 06:32:43;;;;;;;51.73;30.07;;;6.80;99.90;;;;;;5071221;28;20165;-59
2022/03/21 06:35:12;;;;;;;58.40;29.87;;;6.80;99.90;;;;;;5068360;28;20635;-59
2022/03/21 06:37:41;;;;;;;56.67;30.17;;;6.80;99.90;;;;;;5058987;28;20172;-59
2022/03/21 06:40:09;;;;;;;55.20;30.43;;;6.80;99.90;;;;;;5070362;28;20223;-59
2022/03/21 06:42:35;;;;;;;55.07;30.30;;;6.90;99.90;;;;;;5070776;28;20183;-59
2022/03/21 06:45:01;;;;;;;55.37;30.53;;;6.90;99.90;;;;;;5071262;28;20180;-59
2022/03/21 06:47:27;;;;;;;52.73;30.07;;;6.80;99.90;;;;;;5069952;28;20259;-59
2022/03/21 06:49:53;;;;;;;53.27;28.03;;;6.80;99.90;;;;;;5046995;28;20272;-59
2022/03/21 06:52:19;;;;;;;59.43;31.43;;;6.90;99.90;;;;;;5055821;28;20271;-58
2022/03/21 06:54:49;;;;;;;56.17;30.37;;;6.90;99.90;;;;;;5071408;28;20176;-59
2022/03/21 06:57:17;;;;;;;57.47;30.57;;;7.00;99.90;;;;;;5062627;28;20176;-59
2022/03/21 06:59:46;;;;;;;53.00;29.30;;;7.00;99.90;;;;;;5068528;28;20216;-59
2022/03/21 07:02:12;;;;;;;54.43;29.27;;;7.10;99.90;;;;;;5063388;28;20263;-58
2022/03/21 07:04:38;;;;;;;53.53;29.33;;;7.00;99.90;;;;;;5059562;28;20216;-59
2022/03/21 07:07:04;;;;;;;57.00;30.03;;;7.10;99.90;;;;;;5052898;28;20218;-59
2022/03/21 07:09:30;;;;;;;57.87;29.73;;;7.00;99.90;;;;;;5069386;28;20267;-59
2022/03/21 07:11:55;;;;;;;61.03;30.27;;;7.10;99.90;;;;;;5070564;28;20180;-59
2022/03/21 07:14:21;;;;;;;55.00;31.50;;;7.10;99.90;;;;;;5070414;28;20172;-58
2022/03/21 07:16:48;;;;;;;56.90;31.27;;;7.30;99.90;;;;;;5058133;28;20169;-61
2022/03/21 07:19:13;;;;;;;59.90;29.27;;;7.30;99.90;;;;;;5069951;28;20172;-60
2022/03/21 07:21:39;;;;;;;55.83;29.90;;;7.40;99.90;;;;;;5070304;28;20677;-56
2022/03/21 07:24:07;;;;;;;65.63;31.47;;;7.30;99.90;;;;;;5069294;28;20256;-56
2022/03/21 07:26:33;;;;;;;56.47;30.37;;;7.30;99.90;;;;;;5054251;28;20178;-56
2022/03/21 07:28:59;;;;;;;57.97;30.30;;;7.20;99.90;;;;;;5070792;28;20173;-56
2022/03/21 07:31:25;;;;;;;57.90;29.50;;;7.30;99.90;;;;;;5070783;28;20544;-57
2022/03/21 07:33:51;;;;;;;54.77;29.77;;;7.40;99.90;;;;;;5070669;28;20173;-56
2022/03/21 07:36:16;;;;;;;53.70;30.30;;;7.40;99.90;;;;;;5069399;28;20192;-65
2022/03/21 07:38:42;;;;;;;52.80;30.50;;;7.30;99.90;;;;;;5066791;28;20169;-65
2022/03/21 07:41:08;;;;;;;56.80;30.37;;;7.30;99.90;;;;;;5070477;28;20689;-65
2022/03/21 07:43:35;;;;;;;59.70;30.23;;;7.40;99.90;;;;;;5067885;28;20165;-66
2022/03/21 07:48:47;;;;;;;55.17;30.47;;;7.50;99.90;;;;;;5070922;28;20230;-70
2022/03/21 07:51:14;;;;;;;59.37;30.27;;;7.40;99.90;;;;;;5054116;28;20189;-70
2022/03/21 07:53:40;;;;;;;53.47;31.13;;;7.50;99.90;;;;;;5050739;28;20186;-63
2022/03/21 07:56:06;;;;;;;57.43;31.13;;;7.50;99.90;;;;;;5055657;28;20172;-73
2022/03/21 07:58:32;;;;;;;51.83;29.10;;;7.50;99.90;;;;;;5064454;28;20177;-71
2022/03/21 08:01:01;;;;;;;59.90;30.70;;;7.50;99.90;;;;;;5070212;28;20266;-71
2022/03/21 08:03:27;;;;;;;57.53;29.93;;;7.60;99.90;;;;;;5066448;28;20232;-71
2022/03/21 08:05:53;;;;;;;56.43;31.60;;;7.70;99.90;;;;;;5062427;28;20177;-68
2022/03/21 08:08:22;;;;;;;57.07;30.30;;;7.70;99.90;;;;;;5055788;28;20177;-70
2022/03/21 08:10:48;;;;;;;62.37;29.50;;;7.80;99.90;;;;;;5069395;28;20173;-67
2022/03/21 08:13:17;;;;;;;59.03;29.03;;;7.80;99.90;;;;;;5058196;28;20165;-62
2022/03/21 08:15:44;;;;;;;54.27;29.67;;;7.70;99.90;;;;;;5032567;28;20216;-70
2022/03/21 08:18:11;;;;;;;57.20;29.47;;;7.70;99.90;;;;;;5050615;28;20174;-71
2022/03/21 08:20:39;;;;;;;58.73;31.17;;;7.80;99.90;;;;;;5050560;28;20217;-70
2022/03/21 08:23:11;;;;;;;55.67;30.60;;;7.80;99.90;;;;;;5070372;28;20181;-70
2022/03/21 08:25:38;;;;;;;57.30;31.30;;;7.40;99.90;;;;;;5070439;28;20173;-71
2022/03/21 08:28:05;;;;;;;51.67;29.73;;;7.80;99.90;;;;;;5070443;28;20180;-69
2022/03/21 08:30:34;;;;;;;62.30;31.60;;;7.80;99.90;;;;;;5068593;28;20169;-70
2022/03/21 08:33:01;;;;;;;56.20;30.80;;;7.90;99.90;;;;;;5070342;28;20259;-70
2022/03/21 08:35:27;;;;;;;54.33;28.50;;;8.00;99.90;;;;;;5077030;28;20249;-70
2022/03/21 08:37:53;;;;;;;53.10;28.63;;;8.20;99.90;;;;;;5051966;28;20176;-71
2022/03/21 08:40:18;;;;;;;51.43;28.10;;;8.10;99.90;;;;;;5082414;28;20298;-70
2022/03/21 08:42:45;;;;;;;53.10;28.90;;;8.10;99.90;;;;;;5040730;28;20271;-70
2022/03/21 08:45:12;;;;;;;54.13;29.07;;;8.30;99.90;;;;;;5058820;28;20172;-80
2022/03/21 08:47:39;;;;;;;54.27;28.87;;;8.20;99.90;;;;;;5041282;28;20181;-70
2022/03/21 08:50:06;;;;;;;47.90;28.40;;;8.30;99.90;;;;;;5072786;28;20229;-70
2022/03/21 08:52:32;;;;;;;48.93;28.77;;;8.40;99.90;;;;;;5073420;28;20178;-73
2022/03/21 08:54:58;;;;;;;52.70;28.17;;;8.20;99.90;;;;;;5067504;28;20256;-71
2022/03/21 08:57:24;;;;;;;56.07;30.27;;;8.30;99.90;;;;;;5066741;28;20346;-70
2022/03/21 08:59:52;;;;;;;54.43;28.27;;;8.40;99.90;;;;;;5062615;28;20197;-64
2022/03/21 09:02:18;;;;;;;50.40;29.20;;;8.50;99.90;;;;;;5053863;28;20255;-66
2022/03/21 09:04:44;;;;;;;47.63;27.63;;;8.50;99.90;;;;;;5062207;28;20212;-66
2022/03/21 09:07:12;;;;;;;52.00;30.00;;;8.40;99.90;;;;;;5053817;28;20188;-66
2022/03/21 09:09:39;;;;;;;52.90;28.57;;;8.50;99.90;;;;;;5064131;28;20537;-66
2022/03/21 09:12:05;;;;;;;49.87;27.67;;;8.50;99.90;;;;;;5082444;28;20192;-71
2022/03/21 09:14:31;;;;;;;54.33;29.33;;;8.40;99.90;;;;;;5062265;28;20169;-67
2022/03/21 09:16:56;;;;;;;48.00;27.30;;;8.30;99.90;;;;;;5065898;28;20199;-60
2022/03/21 09:19:25;;;;;;;57.97;28.23;;;8.50;99.90;;;;;;5057387;28;20256;-60
2022/03/21 09:21:51;;;;;;;52.07;27.40;;;8.60;99.90;;;;;;5063308;28;20187;-60
2022/03/21 09:24:17;;;;;;;49.97;27.77;;;8.60;99.90;;;;;;5073329;28;20165;-67
2022/03/21 09:26:43;;;;;;;51.57;28.83;;;8.80;99.90;;;;;;5073475;28;20574;-67
2022/03/21 09:29:09;;;;;;;53.03;29.97;;;9.20;99.90;;;;;;5068455;28;20676;-66
2022/03/21 09:31:41;;;;;;;51.07;28.90;;;9.60;99.90;;;;;;5055499;28;20172;-66
2022/03/21 09:34:09;;;;;;;49.87;29.53;;;9.90;99.90;;;;;;5073213;28;20650;-66
2022/03/21 09:36:35;;;;;;;50.50;29.10;;;10.00;99.90;;;;;;5068032;28;20642;-67
2022/03/21 09:39:01;;;;;;;47.93;28.50;;;9.80;99.90;;;;;;5073204;28;20177;-67
2022/03/21 09:41:29;;;;;;;50.83;27.30;;;10.30;99.90;;;;;;5072941;28;20262;-66
2022/03/21 09:44:07;;;;;;;45.50;28.33;;;10.10;99.90;;;;;;5068087;28;20323;-67
2022/03/21 09:46:33;;;;;;;50.93;29.87;;;9.80;99.90;;;;;;5054586;28;20271;-67
2022/03/21 09:48:59;;;;;;;52.03;29.53;;;9.90;99.90;;;;;;5072936;28;20677;-67
2022/03/21 09:51:29;;;;;;;50.97;29.30;;;10.00;99.90;;;;;;5072983;28;20236;-66
2022/03/21 09:53:56;;;;;;;52.33;30.27;;;10.00;99.90;;;;;;5054945;28;20176;-66
2022/03/21 09:56:23;;;;;;;54.73;30.33;;;9.60;99.90;;;;;;5044620;28;20185;-67
2022/03/21 09:58:49;;;;;;;55.00;29.40;;;10.00;99.90;;;;;;5051592;28;20643;-67
2022/03/21 10:01:16;;;;;;;52.60;30.27;;;10.20;99.90;;;;;;5072520;28;20266;-67
2022/03/21 10:03:43;;;;;;;56.47;30.60;;;10.00;99.90;;;;;;5072355;28;20255;-67
2022/03/21 10:06:40;;;;;;;53.63;28.93;;;10.10;99.90;;;;;;5072351;28;20617;-67
2022/03/21 10:09:19;;;;;;;52.43;29.90;;;10.10;99.90;;;;;;5054512;28;20706;-65
2022/03/21 10:11:50;;;;;;;59.00;30.63;;;10.90;99.90;;;;;;5072701;28;20255;-69
2022/03/21 10:14:32;;;;;;;51.80;29.47;;;10.40;99.90;;;;;;5072352;28;20172;-68
2022/03/21 10:17:13;;;;;;;53.20;29.93;;;10.90;99.90;;;;;;5053405;28;20271;-68
2022/03/21 10:19:47;;;;;;;45.83;28.43;;;11.10;99.90;;;;;;5072353;28;20401;-67
2022/03/21 10:22:20;;;;;;;51.83;30.43;;;11.30;99.90;;;;;;5072282;28;20580;-69
2022/03/21 10:24:50;;;;;;;57.00;31.60;;;11.00;99.90;;;;;;5071942;28;20173;-65
2022/03/21 10:27:34;;;;;;;53.63;30.67;;;11.20;99.90;;;;;;5054446;28;20176;-66
2022/03/21 10:30:15;;;;;;;51.90;31.03;;;11.60;99.90;;;;;;5070884;28;20176;-62
2022/03/21 10:32:46;;;;;;;51.90;29.48;;;11.60;99.90;;;;;;5067106;28;20655;-61
2022/03/21 10:35:14;;;;;;;49.53;30.42;;;12.10;99.90;;;;;;5060041;28;20203;-63
2022/03/21 10:37:47;;;;;;;50.95;29.55;;;12.20;99.90;;;;;;5051305;28;20701;-70
2022/03/21 10:40:40;;;;;;;56.03;30.77;;;11.40;99.90;;;;;;5059594;28;20283;-61
2022/03/21 10:43:14;;;;;;;50.37;30.60;;;11.50;99.90;;;;;;5064048;28;20172;-62
2022/03/21 10:45:47;;;;;;;48.20;29.88;;;11.50;99.90;;;;;;5071792;28;20211;-62
2022/03/21 10:48:16;;;;;;;50.85;29.40;;;11.70;99.90;;;;;;5067069;28;20176;-61
2022/03/21 10:50:46;;;;;;;51.65;29.00;;;11.20;99.90;;;;;;5072136;28;20189;-60
2022/03/21 10:53:16;;;;;;;45.25;28.42;;;11.50;99.90;;;;;;5071776;28;20172;-64
2022/03/21 10:55:48;;;;;;;50.55;29.67;;;11.90;99.90;;;;;;5071497;28;20281;-61
2022/03/21 10:58:16;;;;;;;46.42;28.10;;;12.10;99.90;;;;;;5053043;28;20542;-62
2022/03/21 11:00:42;;;;;;;47.63;29.48;;;12.20;99.90;;;;;;5071473;28;20254;-63
2022/03/21 11:03:13;;;;;;;46.92;28.42;;;12.10;99.90;;;;;;5053401;28;20171;-61
2022/03/21 11:05:41;;;;;;;55.15;29.15;;;12.40;99.90;;;;;;5071455;28;20611;-62
2022/03/21 11:08:09;;;;;;;54.83;29.15;;;12.50;99.90;;;;;;5070793;28;20165;-62
2022/03/21 11:10:35;;;;;;;45.80;27.92;;;13.00;99.90;;;;;;5071379;28;20181;-62
2022/03/21 11:13:03;;;;;;;49.58;29.75;;;13.00;99.90;;;;;;5069367;28;20675;-63
2022/03/21 11:15:31;;;;;;;50.30;29.63;;;12.50;99.90;;;;;;5051118;28;20187;-62
2022/03/21 11:17:57;;;;;;;48.30;28.88;;;12.30;99.90;;;;;;5071312;28;20188;-62
2022/03/21 11:20:24;;;;;;;51.05;28.02;;;12.10;99.90;;;;;;5065804;28;20469;-61
2022/03/21 11:22:52;;;;;;;47.42;28.25;;;12.60;99.90;;;;;;5058484;28;20169;-63
2022/03/21 11:25:18;;;;;;;51.17;29.13;;;13.40;99.90;;;;;;5068183;28;20179;-62
2022/03/21 11:28:32;;;;;;;49.88;27.95;;;13.20;99.90;;;;;;5070529;28;20211;-61
2022/03/21 11:31:03;;;;;;;49.22;28.25;;;12.60;99.90;;;;;;4975455;28;20208;-61
2022/03/21 11:33:56;;;;;;;46.03;28.15;;;12.90;99.90;;;;;;5050912;28;20236;-62
2022/03/21 11:36:24;;;;;;;43.50;27.60;;;13.40;99.90;;;;;;5050900;28;20181;-62
2022/03/21 11:38:56;;;;;;;46.58;29.95;;;13.80;99.90;;;;;;5056097;28;20263;-61
2022/03/21 11:41:24;;;;;;;52.45;30.33;;;14.10;99.90;;;;;;5070683;28;20208;-62
2022/03/21 11:44:16;;;;;;;47.30;29.80;;;13.90;99.90;;;;;;5070794;28;20191;-61
2022/03/21 11:46:47;;;;;;;46.90;29.10;;;13.70;99.90;;;;;;5058970;28;20717;-62
2022/03/21 11:49:19;;;;;;;49.60;29.58;;;14.10;99.90;;;;;;5070377;28;20169;-61
2022/03/21 11:51:58;;;;;;;46.63;29.30;;;15.00;99.90;;;;;;5041461;28;20196;-62
2022/03/21 11:54:32;;;;;;;50.40;29.48;;;15.40;99.90;;;;;;5071125;28;20200;-62
2022/03/21 11:57:01;;;;;;;54.42;30.38;;;15.10;99.90;;;;;;5065927;28;20263;-62
2022/03/21 11:59:33;;;;;;;48.45;30.33;;;15.10;99.90;;;;;;5070269;28;20180;-62
2022/03/21 12:02:00;;;;;;;45.60;28.88;;;15.00;99.90;;;;;;5068682;28;20263;-63
2022/03/21 12:04:25;;;;;;;46.63;28.83;;;15.30;99.90;;;;;;5070451;28;20212;-63
2022/03/21 12:06:57;;;;;;;46.13;30.17;;;15.60;99.90;;;;;;5070816;28;20218;-62
2022/03/21 12:09:23;;;;;;;45.25;29.10;;;15.70;99.90;;;;;;5070641;28;20206;-63
2022/03/21 12:11:49;;;;;;;48.28;30.00;;;15.00;99.90;;;;;;5070239;28;20193;-62
2022/03/21 12:14:40;;;;;;;48.78;31.08;;;14.90;99.90;;;;;;5070637;28;20595;-62
2022/03/21 12:17:05;;;;;;;48.33;29.85;;;14.20;99.90;;;;;;5070501;28;20200;-62
2022/03/21 12:19:57;;;;;;;51.13;30.42;;;14.60;99.90;;;;;;5070335;28;20647;-62
2022/03/21 12:22:29;;;;;;;52.72;30.63;;;14.80;99.90;;;;;;5071170;28;20643;-61
2022/03/21 12:24:57;;;;;;;50.78;30.27;;;14.80;99.90;;;;;;5068902;28;20196;-62
2022/03/21 12:27:42;;;;;;;48.00;29.80;;;14.90;99.90;;;;;;5062954;28;20294;-61
2022/03/21 12:30:30;;;;;;;48.40;31.15;;;15.10;99.90;;;;;;5040178;28;20173;-62
2022/03/21 12:33:05;;;;;;;48.70;31.05;;;15.30;99.90;;;;;;5060235;28;20641;-62
2022/03/21 12:35:31;;;;;;;51.08;31.17;;;15.00;99.90;;;;;;5072526;28;20223;-63
2022/03/21 12:38:24;;;;;;;50.97;30.17;;;15.00;99.90;;;;;;5055504;28;20211;-62
2022/03/21 12:40:55;;;;;;;53.55;32.58;;;15.10;99.90;;;;;;5064762;28;20217;-62
2022/03/21 12:43:29;;;;;;;46.75;30.25;;;15.00;99.90;;;;;;5062543;28;20178;-62
2022/03/21 12:46:06;;;;;;;54.28;31.08;;;14.90;99.90;;;;;;5068202;28;20230;-62
2022/03/21 12:48:36;;;;;;;55.15;30.83;;;14.90;99.90;;;;;;5073563;28;20199;-61
2022/03/21 12:51:04;;;;;;;49.15;30.90;;;14.30;99.90;;;;;;5073427;28;20175;-62
2022/03/21 12:53:44;;;;;;;51.65;29.77;;;14.80;99.90;;;;;;5071170;28;20221;-62
2022/03/21 12:56:12;;;;;;;50.83;30.67;;;15.00;99.90;;;;;;5072163;28;20183;-62